Time;durP1;ratioP1;P1;durP2;ratioP2;P2;SDS_P1;SDS_P2;PMS_P1;PMS_P2;Temp;Humidity;BMP_temperature;BMP_pressure;BME280_temperature;BME280_humidity;BME280_pressure;Samples;Min_cycle;Max_cycle;Signal;HPM_P1;HPM_P2
2023/04/22 00:00:10;;;;;;;3.07;2.60;;;14.40;99.90;;;;;;5038012;28;20186;-70
2023/04/22 00:02:37;;;;;;;2.50;2.13;;;14.40;99.90;;;;;;5034990;28;20479;-69
2023/04/22 00:05:07;;;;;;;2.30;2.10;;;14.40;99.90;;;;;;5017055;28;20427;-69
2023/04/22 00:07:32;;;;;;;2.77;2.53;;;14.40;99.90;;;;;;5034681;28;20542;-70
2023/04/22 00:09:58;;;;;;;2.40;2.20;;;14.30;99.90;;;;;;5000168;28;20456;-70
2023/04/22 00:12:24;;;;;;;2.33;2.13;;;14.30;99.90;;;;;;5049789;23;20487;-66
2023/04/22 00:14:50;;;;;;;3.63;3.33;;;14.30;99.90;;;;;;5017041;28;20174;-65
2023/04/22 00:17:16;;;;;;;2.70;2.30;;;14.30;99.90;;;;;;5017319;28;20775;-68
2023/04/22 00:19:42;;;;;;;3.00;2.70;;;14.30;99.90;;;;;;5034735;28;20170;-67
2023/04/22 00:22:08;;;;;;;3.63;2.40;;;14.30;99.90;;;;;;5035133;28;20187;-67
2023/04/22 00:24:34;;;;;;;2.73;2.43;;;14.10;99.90;;;;;;5033302;28;20424;-67
2023/04/22 00:26:59;;;;;;;3.60;2.90;;;14.10;99.90;;;;;;5017072;28;20237;-67
2023/04/22 00:29:25;;;;;;;2.83;2.60;;;13.90;99.90;;;;;;5033460;28;20176;-67
2023/04/22 00:31:51;;;;;;;3.37;3.07;;;13.90;99.90;;;;;;5016758;28;20274;-67
2023/04/22 00:34:16;;;;;;;6.67;2.60;;;13.90;99.90;;;;;;5016658;28;20167;-67
2023/04/22 00:36:42;;;;;;;3.30;2.60;;;13.80;99.90;;;;;;5019039;28;20169;-67
2023/04/22 00:39:08;;;;;;;2.70;2.50;;;13.80;99.90;;;;;;5013937;28;20199;-68
2023/04/22 00:41:34;;;;;;;7.80;3.33;;;13.90;99.90;;;;;;5033173;28;20449;-67
2023/04/22 00:44:00;;;;;;;3.80;3.10;;;14.00;99.90;;;;;;4999768;28;20176;-67
2023/04/22 00:46:26;;;;;;;4.30;2.77;;;13.90;99.90;;;;;;5034115;28;20452;-68
2023/04/22 00:48:52;;;;;;;4.30;3.90;;;13.90;99.90;;;;;;5032927;28;20454;-67
2023/04/22 00:51:18;;;;;;;2.87;2.67;;;13.90;99.90;;;;;;5016620;28;20425;-67
2023/04/22 00:53:43;;;;;;;2.90;2.70;;;13.80;99.90;;;;;;5032637;28;20917;-67
2023/04/22 00:56:11;;;;;;;3.50;3.20;;;13.80;99.90;;;;;;5034342;28;20178;-67
2023/04/22 00:58:37;;;;;;;2.70;2.50;;;13.90;99.90;;;;;;5031607;28;20184;-67
2023/04/22 01:01:02;;;;;;;3.93;3.30;;;13.80;99.90;;;;;;5012503;28;20430;-67
2023/04/22 01:03:29;;;;;;;4.10;3.70;;;13.80;99.90;;;;;;5013014;28;20238;-67
2023/04/22 01:05:56;;;;;;;4.73;4.20;;;13.70;99.90;;;;;;5014323;28;20164;-66
2023/04/22 01:08:26;;;;;;;3.70;3.40;;;13.70;99.90;;;;;;5012931;28;20514;-67
2023/04/22 01:10:53;;;;;;;3.87;3.47;;;13.70;99.90;;;;;;5013168;28;20425;-67
2023/04/22 01:13:18;;;;;;;8.07;4.83;;;13.70;99.90;;;;;;5012786;28;20441;-67
2023/04/22 01:15:44;;;;;;;5.57;4.80;;;13.80;99.90;;;;;;5012255;28;20429;-67
2023/04/22 01:18:10;;;;;;;4.77;4.37;;;13.70;99.90;;;;;;5012765;28;20175;-66
2023/04/22 01:20:36;;;;;;;5.20;4.77;;;13.50;99.90;;;;;;5012512;28;20410;-68
2023/04/22 01:23:08;;;;;;;5.30;4.90;;;13.60;99.90;;;;;;5012973;28;20471;-67
2023/04/22 01:25:34;;;;;;;5.30;4.80;;;13.50;99.90;;;;;;5012665;28;20408;-67
2023/04/22 01:28:01;;;;;;;11.70;6.10;;;13.50;99.90;;;;;;5012451;28;20827;-67
2023/04/22 01:30:27;;;;;;;6.17;5.57;;;13.50;99.90;;;;;;5014565;28;20381;-67
2023/04/22 01:32:53;;;;;;;8.47;6.43;;;13.50;99.90;;;;;;5015621;28;20536;-67
2023/04/22 01:35:18;;;;;;;7.43;6.03;;;13.50;99.90;;;;;;5015621;28;20179;-66
2023/04/22 01:37:44;;;;;;;6.20;5.60;;;13.60;99.90;;;;;;5015717;28;20178;-67
2023/04/22 01:40:10;;;;;;;5.70;5.20;;;13.60;99.90;;;;;;5015216;28;20178;-65
2023/04/22 01:42:36;;;;;;;6.67;6.13;;;13.50;99.90;;;;;;5031819;28;20245;-67
2023/04/22 01:45:02;;;;;;;6.83;6.23;;;13.40;99.90;;;;;;4998664;28;20405;-67
2023/04/22 01:47:28;;;;;;;5.63;4.90;;;13.40;99.90;;;;;;5031701;28;20211;-67
2023/04/22 01:49:54;;;;;;;5.60;5.10;;;13.50;99.90;;;;;;5031816;28;20805;-67
2023/04/22 01:52:19;;;;;;;5.50;5.10;;;13.60;99.90;;;;;;5015429;28;20748;-67
2023/04/22 01:54:45;;;;;;;6.03;5.53;;;13.60;99.90;;;;;;5031827;28;20170;-67
2023/04/22 01:57:13;;;;;;;5.33;4.93;;;13.50;99.90;;;;;;5031874;28;20174;-67
2023/04/22 01:59:39;;;;;;;6.70;6.00;;;13.60;99.90;;;;;;5024871;28;20509;-67
2023/04/22 02:02:05;;;;;;;5.53;5.03;;;13.40;99.90;;;;;;5015458;28;20784;-67
2023/04/22 02:04:31;;;;;;;6.70;6.07;;;13.50;99.90;;;;;;5031692;28;20464;-67
2023/04/22 02:06:56;;;;;;;5.70;5.20;;;13.50;99.90;;;;;;5031743;28;20417;-66
2023/04/22 02:09:22;;;;;;;5.63;5.13;;;13.50;99.90;;;;;;5033251;28;20425;-67
2023/04/22 02:11:47;;;;;;;6.13;5.50;;;13.50;99.90;;;;;;5016376;28;20695;-67
2023/04/22 02:14:13;;;;;;;6.17;5.57;;;13.50;99.90;;;;;;5021290;28;20384;-67
2023/04/22 02:16:42;;;;;;;9.17;6.90;;;13.50;99.90;;;;;;5039597;28;20203;-67
2023/04/22 02:19:07;;;;;;;7.70;6.27;;;13.50;99.90;;;;;;5038220;28;20174;-67
2023/04/22 02:21:33;;;;;;;6.03;5.43;;;13.50;99.90;;;;;;5021603;28;20502;-67
2023/04/22 02:23:59;;;;;;;7.90;6.20;;;13.40;99.90;;;;;;5039396;28;20167;-66
2023/04/22 02:26:24;;;;;;;6.73;6.07;;;13.30;99.90;;;;;;5005251;28;20188;-67
2023/04/22 02:28:53;;;;;;;7.03;6.47;;;13.40;99.90;;;;;;5021241;28;20191;-66
2023/04/22 02:31:19;;;;;;;6.87;6.17;;;13.30;99.90;;;;;;5038514;28;20205;-66
2023/04/22 02:33:45;;;;;;;7.17;6.47;;;13.30;99.90;;;;;;5037480;28;20502;-66
2023/04/22 02:36:10;;;;;;;8.10;6.70;;;13.30;99.90;;;;;;5018633;28;20288;-66
2023/04/22 02:38:37;;;;;;;6.77;6.17;;;13.40;99.90;;;;;;5019547;28;20170;-66
2023/04/22 02:41:02;;;;;;;7.10;6.40;;;13.30;99.90;;;;;;5002380;28;20266;-67
2023/04/22 02:43:28;;;;;;;11.07;6.03;;;13.30;99.90;;;;;;5001591;28;20416;-66
2023/04/22 02:45:53;;;;;;;7.40;6.10;;;13.30;99.90;;;;;;5019155;28;20211;-66
2023/04/22 02:48:19;;;;;;;5.07;4.63;;;13.40;99.90;;;;;;5002063;28;20174;-66
2023/04/22 02:50:44;;;;;;;7.10;6.00;;;13.20;99.90;;;;;;5018257;28;20172;-67
2023/04/22 02:53:10;;;;;;;6.73;5.70;;;13.30;99.90;;;;;;5001920;28;20184;-67
2023/04/22 02:55:36;;;;;;;6.10;5.47;;;13.40;99.90;;;;;;5018247;28;20648;-67
2023/04/22 02:58:01;;;;;;;6.80;6.30;;;13.30;99.90;;;;;;5001608;28;20337;-66
2023/04/22 03:00:28;;;;;;;7.10;6.50;;;13.20;99.90;;;;;;5035058;28;20276;-67
2023/04/22 03:02:54;;;;;;;6.07;5.33;;;13.00;99.90;;;;;;5024752;28;20198;-67
2023/04/22 03:05:19;;;;;;;7.07;6.47;;;13.00;99.90;;;;;;5019075;28;20406;-67
2023/04/22 03:07:46;;;;;;;6.63;6.03;;;13.00;99.90;;;;;;5018043;28;20266;-67
2023/04/22 03:10:12;;;;;;;7.10;6.40;;;13.00;99.90;;;;;;5017997;28;20192;-67
2023/04/22 03:12:37;;;;;;;6.73;6.13;;;13.00;99.90;;;;;;5017900;28;20843;-67
2023/04/22 03:15:03;;;;;;;7.50;6.80;;;13.00;99.90;;;;;;5017350;28;20174;-67
2023/04/22 03:17:29;;;;;;;7.57;6.87;;;12.90;99.90;;;;;;5017815;28;20202;-67
2023/04/22 03:19:55;;;;;;;6.73;6.17;;;12.80;99.90;;;;;;5017931;28;20481;-67
2023/04/22 03:22:20;;;;;;;6.57;6.00;;;12.80;99.90;;;;;;5018213;28;20282;-67
2023/04/22 03:24:46;;;;;;;7.60;5.70;;;12.70;99.90;;;;;;5014199;28;20179;-67
2023/04/22 03:27:12;;;;;;;7.63;6.93;;;12.80;99.90;;;;;;5014688;28;20551;-67
2023/04/22 03:29:37;;;;;;;6.17;5.57;;;12.80;99.90;;;;;;5016629;28;20551;-67
2023/04/22 03:32:03;;;;;;;7.67;6.97;;;12.80;99.90;;;;;;5017832;28;20434;-67
2023/04/22 03:34:29;;;;;;;6.43;5.87;;;12.80;99.90;;;;;;5017808;28;20172;-66
2023/04/22 03:36:54;;;;;;;8.03;7.23;;;12.80;99.90;;;;;;5034953;28;20205;-65
2023/04/22 03:39:20;;;;;;;7.40;6.70;;;12.80;99.90;;;;;;5017904;28;20169;-67
2023/04/22 03:41:45;;;;;;;6.67;6.17;;;12.60;99.90;;;;;;5017883;28;20562;-67
2023/04/22 03:44:11;;;;;;;6.97;6.40;;;12.50;99.90;;;;;;5032082;28;20172;-67
2023/04/22 03:46:37;;;;;;;7.00;6.30;;;12.50;99.90;;;;;;5034962;28;20173;-68
2023/04/22 03:49:02;;;;;;;7.53;6.83;;;12.60;99.90;;;;;;5034396;28;20168;-68
2023/04/22 03:51:28;;;;;;;7.00;6.40;;;12.60;99.90;;;;;;5034220;28;20198;-68
2023/04/22 03:53:54;;;;;;;8.47;7.67;;;12.60;99.90;;;;;;5018091;28;20645;-68
2023/04/22 03:56:20;;;;;;;9.70;7.17;;;12.60;99.90;;;;;;5017763;28;20234;-68
2023/04/22 03:58:45;;;;;;;7.30;6.60;;;12.50;99.90;;;;;;5035258;28;20188;-67
2023/04/22 04:01:11;;;;;;;6.90;6.30;;;12.30;99.90;;;;;;5035411;28;20423;-68
2023/04/22 04:03:36;;;;;;;8.67;7.77;;;12.20;99.90;;;;;;5018262;28;20175;-68
2023/04/22 04:06:02;;;;;;;6.97;6.37;;;12.20;99.90;;;;;;5034200;28;20167;-68
2023/04/22 04:08:28;;;;;;;7.10;6.50;;;12.30;99.90;;;;;;5017926;28;20202;-67
2023/04/22 04:10:54;;;;;;;8.60;7.33;;;12.40;99.90;;;;;;5017570;28;20683;-68
2023/04/22 04:13:19;;;;;;;7.50;6.80;;;12.50;99.90;;;;;;5017285;28;20620;-68
2023/04/22 04:15:46;;;;;;;6.80;6.20;;;12.50;99.90;;;;;;5034070;28;20366;-68
2023/04/22 04:18:12;;;;;;;7.00;6.30;;;12.40;99.90;;;;;;5017205;28;20199;-68
2023/04/22 04:20:38;;;;;;;7.30;6.60;;;12.30;99.90;;;;;;5017508;28;20422;-67
2023/04/22 04:23:03;;;;;;;7.30;6.70;;;12.20;99.90;;;;;;5033757;28;20419;-68
2023/04/22 04:25:36;;;;;;;7.40;6.50;;;12.10;99.90;;;;;;5033698;28;20163;-68
2023/04/22 04:28:04;;;;;;;7.43;6.57;;;12.10;99.90;;;;;;5017257;28;20218;-68
2023/04/22 04:30:29;;;;;;;8.97;6.67;;;12.10;99.90;;;;;;5033192;28;20414;-68
2023/04/22 04:32:56;;;;;;;6.77;6.07;;;12.10;99.90;;;;;;5016818;28;20561;-66
2023/04/22 04:35:22;;;;;;;6.50;5.90;;;12.00;99.90;;;;;;5033868;28;20178;-70
2023/04/22 04:37:49;;;;;;;8.47;7.10;;;12.00;99.90;;;;;;5035059;28;20560;-68
2023/04/22 04:40:15;;;;;;;8.07;7.27;;;11.90;99.90;;;;;;5033661;28;20423;-68
2023/04/22 04:42:41;;;;;;;9.07;8.03;;;11.90;99.90;;;;;;5033447;28;20782;-65
2023/04/22 04:45:08;;;;;;;8.77;7.90;;;12.00;99.90;;;;;;5033136;28;20221;-68
2023/04/22 04:47:33;;;;;;;7.60;6.80;;;12.10;99.90;;;;;;5033498;28;20228;-67
2023/04/22 04:50:03;;;;;;;9.13;8.23;;;12.10;99.90;;;;;;5033542;28;20913;-68
2023/04/22 04:52:28;;;;;;;7.90;7.10;;;12.10;99.90;;;;;;5030984;28;20700;-68
2023/04/22 04:54:54;;;;;;;8.13;7.33;;;12.10;99.90;;;;;;5013189;28;20465;-68
2023/04/22 04:57:19;;;;;;;8.10;7.40;;;12.10;99.90;;;;;;4997102;28;20192;-67
2023/04/22 04:59:45;;;;;;;8.10;7.37;;;12.10;99.90;;;;;;5016058;28;20178;-67
2023/04/22 05:02:11;;;;;;;7.67;7.00;;;12.20;99.90;;;;;;5016508;28;20722;-66
2023/04/22 05:04:36;;;;;;;7.10;6.50;;;12.20;99.90;;;;;;5016769;28;20168;-67
2023/04/22 05:07:02;;;;;;;6.87;6.27;;;12.30;99.90;;;;;;5016782;28;20552;-67
2023/04/22 05:09:28;;;;;;;7.37;6.43;;;12.30;99.90;;;;;;5016442;28;20189;-67
2023/04/22 05:11:54;;;;;;;7.40;6.67;;;12.40;99.90;;;;;;5034106;28;20448;-67
2023/04/22 05:14:19;;;;;;;7.13;6.43;;;12.60;99.90;;;;;;5033945;28;20716;-68
2023/04/22 05:16:45;;;;;;;7.87;7.00;;;12.60;99.90;;;;;;5034483;28;20589;-68
2023/04/22 05:19:10;;;;;;;5.67;5.17;;;12.50;99.90;;;;;;5035291;28;20222;-68
2023/04/22 05:21:36;;;;;;;9.80;6.47;;;12.60;99.90;;;;;;5033913;28;20187;-68
2023/04/22 05:24:01;;;;;;;7.97;7.17;;;12.60;99.90;;;;;;5035201;28;20206;-68
2023/04/22 05:26:27;;;;;;;6.73;6.00;;;12.60;99.90;;;;;;5033518;28;20177;-68
2023/04/22 05:28:53;;;;;;;7.47;6.13;;;12.80;99.90;;;;;;5016321;28;20176;-69
2023/04/22 05:31:18;;;;;;;6.20;5.60;;;12.80;99.90;;;;;;5032162;28;20236;-68
2023/04/22 05:33:44;;;;;;;6.77;6.17;;;12.80;99.90;;;;;;5033826;28;20175;-68
2023/04/22 05:36:10;;;;;;;38.33;33.63;;;12.80;99.90;;;;;;5015827;28;20175;-68
2023/04/22 05:38:35;;;;;;;8.83;7.57;;;12.90;99.90;;;;;;4999500;28;20192;-69
2023/04/22 05:41:01;;;;;;;7.90;7.10;;;12.90;99.90;;;;;;5015650;28;20278;-68
2023/04/22 05:43:26;;;;;;;6.13;5.53;;;13.00;99.90;;;;;;5015029;28;20178;-68
2023/04/22 05:45:52;;;;;;;6.30;5.70;;;12.90;99.90;;;;;;5030907;28;20183;-70
2023/04/22 05:48:17;;;;;;;6.83;5.57;;;13.00;99.90;;;;;;5032879;28;20180;-68
2023/04/22 05:50:43;;;;;;;7.07;5.60;;;13.10;99.90;;;;;;5031267;28;20173;-69
2023/04/22 05:53:09;;;;;;;7.77;7.03;;;13.20;99.90;;;;;;5014487;28;20231;-68
2023/04/22 05:55:34;;;;;;;7.03;6.43;;;13.20;99.90;;;;;;5032705;28;20264;-69
2023/04/22 05:58:00;;;;;;;7.63;6.93;;;13.20;99.90;;;;;;5032137;28;20207;-68
2023/04/22 06:00:25;;;;;;;6.30;5.70;;;13.20;99.90;;;;;;5031771;28;20175;-68
2023/04/22 06:02:51;;;;;;;7.00;6.13;;;13.30;99.90;;;;;;5031934;28;20620;-68
2023/04/22 06:05:17;;;;;;;13.87;7.10;;;13.50;99.90;;;;;;5015726;28;20183;-68
2023/04/22 06:07:42;;;;;;;7.80;7.10;;;13.60;99.90;;;;;;5015963;28;20201;-69
2023/04/22 06:10:08;;;;;;;7.27;6.63;;;13.70;99.90;;;;;;5015819;28;20186;-68
2023/04/22 06:12:34;;;;;;;7.40;6.70;;;13.80;99.90;;;;;;5048914;23;20283;-70
2023/04/22 06:15:00;;;;;;;6.93;6.27;;;13.90;99.90;;;;;;5033387;28;20413;-70
2023/04/22 06:17:26;;;;;;;6.70;6.10;;;14.10;99.90;;;;;;5051813;28;20441;-70
2023/04/22 06:19:51;;;;;;;5.80;5.30;;;14.30;99.90;;;;;;5034119;28;20254;-69
2023/04/22 06:22:17;;;;;;;5.93;5.43;;;14.30;99.90;;;;;;5051929;28;20201;-71
2023/04/22 06:24:42;;;;;;;6.37;5.47;;;14.60;99.90;;;;;;5051887;28;20166;-70
2023/04/22 06:27:08;;;;;;;6.80;6.20;;;14.90;99.90;;;;;;5038007;28;20171;-70
2023/04/22 06:29:33;;;;;;;6.00;5.10;;;15.10;99.90;;;;;;5040423;28;20680;-70
2023/04/22 06:32:00;;;;;;;5.90;5.40;;;15.20;99.90;;;;;;5033765;28;20190;-69
2023/04/22 06:34:25;;;;;;;6.73;6.13;;;15.30;99.90;;;;;;5017579;28;20662;-71
2023/04/22 06:36:52;;;;;;;5.13;4.73;;;15.10;99.90;;;;;;5033683;28;20470;-70
2023/04/22 06:39:17;;;;;;;6.00;5.50;;;15.40;99.90;;;;;;5034118;28;20205;-70
2023/04/22 06:41:43;;;;;;;6.73;6.13;;;15.60;99.90;;;;;;5033957;28;20482;-71
2023/04/22 06:44:08;;;;;;;5.50;5.00;;;15.50;99.90;;;;;;5052623;28;20641;-71
2023/04/22 06:46:34;;;;;;;5.70;5.10;;;15.40;99.90;;;;;;5017783;28;20628;-70
2023/04/22 06:49:00;;;;;;;6.43;5.77;;;15.50;99.90;;;;;;5034258;28;20162;-70
2023/04/22 06:51:26;;;;;;;6.00;5.50;;;15.30;99.90;;;;;;5033590;28;20432;-69
2023/04/22 06:53:51;;;;;;;5.53;5.03;;;15.60;99.90;;;;;;5033668;28;20265;-69
2023/04/22 06:56:17;;;;;;;7.00;5.47;;;15.80;99.90;;;;;;5031507;28;20539;-69
2023/04/22 06:58:43;;;;;;;7.10;5.97;;;15.40;99.90;;;;;;5033661;28;20218;-70
2023/04/22 07:01:08;;;;;;;7.93;5.57;;;15.30;99.90;;;;;;5055004;28;20408;-70
2023/04/22 07:03:34;;;;;;;8.37;6.53;;;15.40;99.90;;;;;;5037388;28;20205;-69
2023/04/22 07:06:00;;;;;;;15.63;11.40;;;15.30;99.90;;;;;;5055179;28;20250;-70
2023/04/22 07:08:25;;;;;;;9.17;7.50;;;15.30;99.90;;;;;;5037518;28;20170;-70
2023/04/22 07:10:51;;;;;;;8.00;6.20;;;15.60;99.90;;;;;;5020774;28;20262;-68
2023/04/22 07:13:17;;;;;;;8.10;7.30;;;16.00;99.90;;;;;;5055004;28;20210;-69
2023/04/22 07:15:44;;;;;;;9.23;7.00;;;16.00;99.90;;;;;;5037027;28;20539;-70
2023/04/22 07:18:10;;;;;;;9.57;6.80;;;16.10;99.90;;;;;;5037229;28;20198;-70
2023/04/22 07:20:36;;;;;;;7.97;7.27;;;16.00;99.90;;;;;;5037313;28;20794;-70
2023/04/22 07:23:01;;;;;;;9.50;8.50;;;16.10;99.90;;;;;;5054922;28;20190;-69
2023/04/22 07:25:27;;;;;;;9.43;8.50;;;16.50;99.90;;;;;;5054025;28;20485;-69
2023/04/22 07:27:52;;;;;;;11.20;8.70;;;17.00;99.90;;;;;;5037271;28;20166;-69
2023/04/22 07:30:18;;;;;;;9.00;8.10;;;17.10;99.90;;;;;;5035713;28;20713;-70
2023/04/22 07:32:44;;;;;;;8.27;6.93;;;16.80;99.90;;;;;;5021326;28;20213;-69
2023/04/22 07:35:09;;;;;;;7.07;6.37;;;17.10;99.90;;;;;;5037648;28;20174;-70
2023/04/22 07:37:35;;;;;;;6.90;6.03;;;17.10;99.90;;;;;;5037474;28;20671;-70
2023/04/22 07:40:00;;;;;;;7.80;7.10;;;17.60;99.90;;;;;;5037485;28;20654;-69
2023/04/22 07:42:26;;;;;;;5.50;4.90;;;18.00;99.90;;;;;;5037163;28;20182;-70
2023/04/22 07:44:52;;;;;;;4.90;4.10;;;18.00;99.90;;;;;;5034788;28;20171;-70
2023/04/22 07:47:17;;;;;;;4.20;3.80;;;17.90;99.90;;;;;;5036925;28;20181;-69
2023/04/22 07:49:44;;;;;;;8.33;6.07;;;18.20;99.90;;;;;;5056968;28;20193;-71
2023/04/22 07:52:10;;;;;;;7.10;5.10;;;18.10;99.90;;;;;;5045685;28;20222;-71
2023/04/22 07:54:35;;;;;;;12.23;10.33;;;17.60;99.90;;;;;;5022155;28;20565;-70
2023/04/22 07:57:01;;;;;;;5.20;4.80;;;17.90;99.90;;;;;;5053928;28;20198;-72
2023/04/22 07:59:26;;;;;;;6.07;5.47;;;18.00;99.90;;;;;;5055100;28;20167;-70
2023/04/22 08:01:52;;;;;;;6.53;5.60;;;18.10;99.90;;;;;;5036169;28;20256;-70
2023/04/22 08:04:21;;;;;;;6.77;6.17;;;18.30;99.90;;;;;;5036992;28;20162;-71
2023/04/22 08:06:47;;;;;;;5.17;4.70;;;18.40;99.90;;;;;;5036566;28;20170;-70
2023/04/22 08:09:12;;;;;;;5.93;5.33;;;18.60;99.90;;;;;;5054272;28;20420;-69
2023/04/22 08:11:38;;;;;;;3.60;3.30;;;19.00;99.90;;;;;;5054050;28;20678;-69
2023/04/22 08:14:03;;;;;;;5.00;4.10;;;19.10;99.90;;;;;;5019544;28;20526;-68
2023/04/22 08:16:29;;;;;;;3.23;2.90;;;19.10;99.90;;;;;;5003143;28;20201;-69
2023/04/22 08:18:56;;;;;;;3.10;2.90;;;19.00;99.90;;;;;;5052962;28;20163;-69
2023/04/22 08:21:22;;;;;;;3.93;3.53;;;19.00;99.90;;;;;;5037844;28;20210;-69
2023/04/22 08:23:47;;;;;;;6.80;3.60;;;19.00;99.90;;;;;;5019628;28;20437;-68
2023/04/22 08:26:17;;;;;;;9.13;3.37;;;18.90;99.90;;;;;;5036139;28;20163;-68
2023/04/22 08:28:43;;;;;;;3.73;2.87;;;18.80;99.90;;;;;;5059274;28;20163;-72
2023/04/22 08:31:10;;;;;;;3.03;2.50;;;18.80;99.90;;;;;;5019778;28;20405;-71
2023/04/22 08:33:36;;;;;;;2.90;2.70;;;18.20;99.90;;;;;;5036036;28;20170;-70
2023/04/22 08:36:02;;;;;;;4.03;2.63;;;18.10;99.90;;;;;;5036039;28;20781;-70
2023/04/22 08:38:28;;;;;;;3.20;3.00;;;18.10;99.90;;;;;;5020194;28;20212;-70
2023/04/22 08:40:56;;;;;;;2.73;2.53;;;18.20;99.90;;;;;;5035878;28;20401;-70
2023/04/22 08:43:24;;;;;;;2.60;2.40;;;18.20;99.90;;;;;;5035958;28;20190;-71
2023/04/22 08:45:50;;;;;;;3.07;2.47;;;18.30;99.90;;;;;;5035115;28;20996;-71
2023/04/22 08:48:17;;;;;;;4.07;2.77;;;18.40;99.90;;;;;;5053506;28;20492;-70
2023/04/22 08:50:45;;;;;;;2.83;2.53;;;18.80;99.90;;;;;;5036507;28;20173;-71
2023/04/22 08:53:12;;;;;;;3.20;2.90;;;19.00;99.90;;;;;;5019488;28;20431;-70
2023/04/22 08:55:40;;;;;;;3.37;2.73;;;19.20;99.90;;;;;;5019674;28;20496;-71
2023/04/22 08:58:06;;;;;;;2.47;2.27;;;19.00;99.90;;;;;;5035904;28;20449;-70
2023/04/22 09:00:33;;;;;;;2.70;2.03;;;19.20;99.90;;;;;;5002424;28;20788;-70
2023/04/22 09:03:01;;;;;;;4.00;2.00;;;19.30;99.90;;;;;;5053379;28;20428;-70
2023/04/22 09:05:30;;;;;;;1.80;1.70;;;19.20;99.50;;;;;;5035446;28;20411;-71
2023/04/22 09:07:57;;;;;;;5.23;4.67;;;19.20;99.60;;;;;;5019548;28;20409;-70
2023/04/22 09:10:23;;;;;;;2.87;2.67;;;19.30;99.20;;;;;;5019267;28;20413;-70
2023/04/22 09:12:49;;;;;;;2.63;2.20;;;19.60;99.30;;;;;;5035798;28;20452;-70
2023/04/22 09:15:21;;;;;;;2.00;1.80;;;19.70;98.80;;;;;;5019232;28;21065;-70
2023/04/22 09:17:49;;;;;;;2.40;2.20;;;19.80;98.50;;;;;;5036062;28;20797;-71
2023/04/22 09:20:16;;;;;;;2.20;2.00;;;20.10;98.70;;;;;;5035833;28;20412;-70
2023/04/22 09:22:44;;;;;;;2.33;2.07;;;20.40;98.70;;;;;;5053074;28;20963;-70
2023/04/22 09:25:21;;;;;;;2.10;1.93;;;20.60;98.20;;;;;;5035586;28;20501;-70
2023/04/22 09:27:55;;;;;;;3.77;2.10;;;20.90;98.10;;;;;;5053919;28;20443;-70
2023/04/22 09:30:38;;;;;;;2.60;2.40;;;21.20;97.40;;;;;;5035539;28;20412;-72
2023/04/22 09:33:05;;;;;;;2.50;2.30;;;21.10;96.90;;;;;;5035460;28;20785;-70
2023/04/22 09:35:34;;;;;;;2.70;2.27;;;20.90;97.60;;;;;;5035284;28;20859;-70
2023/04/22 09:38:02;;;;;;;5.50;4.97;;;21.30;97.10;;;;;;5035325;28;20514;-70
2023/04/22 09:40:29;;;;;;;7.30;4.10;;;21.50;96.50;;;;;;5053429;28;20852;-70
2023/04/22 09:42:57;;;;;;;3.70;2.63;;;21.10;96.10;;;;;;5035327;28;20500;-71
2023/04/22 09:45:30;;;;;;;3.03;2.03;;;21.10;96.00;;;;;;5002236;28;20405;-70
2023/04/22 09:48:00;;;;;;;2.60;2.03;;;21.30;95.30;;;;;;5039977;28;20409;-69
2023/04/22 09:50:27;;;;;;;2.30;2.03;;;21.30;95.10;;;;;;5035699;28;20904;-71
2023/04/22 09:53:01;;;;;;;1.80;1.70;;;21.60;95.00;;;;;;5019156;28;20443;-70
2023/04/22 09:55:29;;;;;;;4.17;2.00;;;21.50;95.20;;;;;;5035480;28;20779;-71
2023/04/22 09:57:56;;;;;;;1.60;1.50;;;21.60;95.80;;;;;;5036439;28;20534;-70
2023/04/22 10:00:26;;;;;;;2.20;2.00;;;21.80;94.50;;;;;;5052856;28;20417;-70
2023/04/22 10:02:51;;;;;;;1.57;1.47;;;21.90;93.90;;;;;;5004043;28;20429;-70
2023/04/22 10:05:17;;;;;;;2.10;1.87;;;22.00;93.90;;;;;;5048969;28;20474;-70
2023/04/22 10:07:44;;;;;;;2.40;1.93;;;21.90;93.30;;;;;;5051672;28;20209;-71
2023/04/22 10:10:09;;;;;;;3.47;2.50;;;22.00;94.20;;;;;;5053306;28;20171;-71
2023/04/22 10:12:36;;;;;;;2.00;1.80;;;22.10;93.80;;;;;;5053163;28;20443;-70
2023/04/22 10:15:05;;;;;;;1.90;1.80;;;22.20;92.80;;;;;;5018914;28;20181;-71
2023/04/22 10:17:33;;;;;;;1.80;1.60;;;22.40;92.60;;;;;;5035129;28;20491;-69
2023/04/22 10:20:06;;;;;;;1.87;1.77;;;22.50;92.80;;;;;;5035554;28;20445;-70
2023/04/22 10:22:33;;;;;;;2.77;2.07;;;22.80;92.50;;;;;;5020020;28;20449;-71
2023/04/22 10:24:59;;;;;;;4.23;1.90;;;23.00;91.60;;;;;;5036359;28;20463;-70
2023/04/22 10:27:25;;;;;;;4.00;1.70;;;22.80;91.00;;;;;;5019916;28;20405;-70
2023/04/22 10:29:51;;;;;;;3.20;2.10;;;22.80;90.80;;;;;;5052439;28;20186;-71
2023/04/22 10:32:16;;;;;;;3.90;2.13;;;23.00;91.20;;;;;;5035512;28;20429;-71
2023/04/22 10:34:45;;;;;;;2.10;1.70;;;23.10;91.90;;;;;;5056880;28;20170;-70
2023/04/22 10:37:12;;;;;;;1.90;1.60;;;23.20;90.10;;;;;;5039062;28;20616;-70
2023/04/22 10:39:41;;;;;;;1.63;1.53;;;23.40;82.60;;;;;;5039153;28;20408;-70
2023/04/22 10:42:14;;;;;;;1.90;1.70;;;23.30;82.60;;;;;;5057100;28;20413;-71
2023/04/22 10:44:48;;;;;;;1.30;1.20;;;23.20;77.60;;;;;;5038581;28;20476;-71
2023/04/22 10:47:37;;;;;;;2.63;1.77;;;23.10;79.30;;;;;;5056522;28;20935;-71
2023/04/22 10:50:25;;;;;;;1.83;1.73;;;23.60;81.90;;;;;;5039245;28;20397;-72
2023/04/22 10:52:56;;;;;;;3.20;2.00;;;24.10;80.50;;;;;;5038964;28;20937;-71
2023/04/22 10:55:23;;;;;;;3.17;1.87;;;24.70;82.90;;;;;;5038956;28;20413;-71
2023/04/22 10:57:51;;;;;;;2.80;1.80;;;25.60;80.30;;;;;;5032722;28;20449;-71
2023/04/22 11:00:24;;;;;;;2.80;2.07;;;27.10;75.70;;;;;;5050055;28;20508;-71
2023/04/22 11:02:51;;;;;;;3.50;1.80;;;27.10;62.10;;;;;;5041432;28;20432;-71
2023/04/22 11:05:19;;;;;;;2.93;1.80;;;27.40;58.70;;;;;;5058184;28;20946;-71
2023/04/22 11:07:48;;;;;;;2.83;1.30;;;27.40;60.00;;;;;;5026604;28;20405;-71
2023/04/22 11:10:40;;;;;;;1.60;1.50;;;28.70;56.20;;;;;;5027991;28;20443;-72
2023/04/22 11:13:14;;;;;;;2.13;1.70;;;29.20;56.80;;;;;;5043378;28;20459;-71
2023/04/22 11:15:42;;;;;;;1.60;1.47;;;30.00;56.30;;;;;;5075225;28;20388;-71
2023/04/22 11:18:10;;;;;;;1.90;1.60;;;30.80;53.10;;;;;;5039821;28;20401;-72
2023/04/22 11:20:36;;;;;;;2.33;1.87;;;29.70;54.60;;;;;;5073377;28;20401;-71
2023/04/22 11:23:02;;;;;;;3.70;1.90;;;29.60;53.90;;;;;;5021768;28;21006;-71
2023/04/22 11:25:28;;;;;;;3.07;1.87;;;29.20;55.60;;;;;;5056103;28;20413;-71
2023/04/22 11:27:54;;;;;;;1.77;1.60;;;29.40;52.60;;;;;;5069282;28;20506;-72
2023/04/22 11:30:21;;;;;;;4.83;1.93;;;29.90;52.90;;;;;;5028282;28;20175;-71
2023/04/22 11:32:56;;;;;;;2.30;1.60;;;30.20;50.20;;;;;;5036348;28;20245;-71
2023/04/22 11:35:30;;;;;;;2.00;1.80;;;29.80;49.20;;;;;;5035891;28;20420;-72
2023/04/22 11:37:57;;;;;;;2.30;1.83;;;30.40;48.50;;;;;;5005928;28;20406;-71
2023/04/22 11:40:26;;;;;;;1.70;1.60;;;30.40;48.60;;;;;;5036000;28;20398;-72
2023/04/22 11:42:52;;;;;;;3.50;1.80;;;29.70;51.80;;;;;;5035428;28;20836;-72
2023/04/22 11:45:18;;;;;;;2.27;2.07;;;30.20;49.00;;;;;;5033009;28;20416;-71
2023/04/22 11:47:45;;;;;;;1.57;1.47;;;30.80;49.30;;;;;;5035146;28;20459;-71
2023/04/22 11:50:12;;;;;;;3.47;2.30;;;31.00;47.20;;;;;;5036651;28;20178;-71
2023/04/22 11:53:04;;;;;;;3.43;2.30;;;30.60;46.10;;;;;;5018161;28;20425;-72
2023/04/22 11:55:32;;;;;;;2.80;2.00;;;30.00;47.70;;;;;;5010083;28;21006;-72
2023/04/22 11:58:13;;;;;;;3.37;2.10;;;29.80;48.80;;;;;;5001702;28;20901;-71
2023/04/22 12:00:44;;;;;;;1.70;1.60;;;30.80;44.60;;;;;;5052599;28;20512;-71
2023/04/22 12:03:14;;;;;;;2.07;1.87;;;31.20;45.20;;;;;;5037086;28;21004;-72
2023/04/22 12:05:45;;;;;;;2.67;1.80;;;30.30;45.60;;;;;;5037898;28;20417;-72
2023/04/22 12:08:13;;;;;;;2.43;1.87;;;29.00;46.30;;;;;;5055012;28;20480;-72
2023/04/22 12:10:53;;;;;;;3.00;2.03;;;28.90;47.10;;;;;;5037128;28;20456;-71
2023/04/22 12:13:23;;;;;;;2.30;1.70;;;28.60;49.60;;;;;;5060310;23;20484;-70
2023/04/22 12:15:54;;;;;;;3.73;1.80;;;27.90;50.30;;;;;;5050941;28;20436;-71
2023/04/22 12:18:40;;;;;;;2.10;1.60;;;27.70;50.80;;;;;;5052864;28;20409;-70
2023/04/22 12:21:06;;;;;;;4.13;1.70;;;28.10;50.20;;;;;;5053515;28;20751;-69
2023/04/22 12:23:54;;;;;;;4.17;1.93;;;27.10;50.90;;;;;;5070028;28;20435;-70
2023/04/22 12:26:23;;;;;;;2.30;2.10;;;26.10;53.30;;;;;;5053333;28;20173;-69
2023/04/22 12:28:49;;;;;;;2.13;1.90;;;26.30;55.90;;;;;;5053069;28;20413;-71
2023/04/22 12:31:17;;;;;;;3.70;2.30;;;26.50;54.60;;;;;;5049710;28;20409;-69
2023/04/22 12:33:43;;;;;;;4.30;2.50;;;26.70;53.80;;;;;;5050021;28;20463;-69
2023/04/22 12:36:09;;;;;;;2.40;1.80;;;26.30;54.20;;;;;;5049956;28;20410;-69
2023/04/22 12:38:35;;;;;;;1.90;1.67;;;26.10;53.70;;;;;;5049876;28;20414;-69
2023/04/22 12:41:01;;;;;;;5.33;2.30;;;26.10;54.90;;;;;;5049723;28;20175;-69
2023/04/22 12:43:27;;;;;;;2.40;1.90;;;26.60;54.50;;;;;;5049573;28;20516;-70